DIRECCIÓN GENERAL DE AERONÁUTICA CIVIL
DIRECCIÓN METEOROLÓGICA DE CHILE
INFORMACIÓN METAR Y TAF

FIR SANTIAGO

Estación: SCSE
METAR SCSE 220600Z 15004KT CAVOK 12/08 Q1015=

TAF SCSE 220400Z 2206/2306 31005KT CAVOK TX20/2218Z TN11/2210Z TEMPO 2206/2212 VRB02KT BKN025 BECMG 2214/2216 30010KT BECMG 2301/2303 15004KT BECMG 2303/2305 BKN012=

Estación: SCER
NIL=

NIL=

Estación: SCRD
METAR SCRD 220000Z 17014KT CAVOK 13/06 Q1020=

TAF SCRD 211630Z 2118/2206 20010KT CAVOK TX19/2118Z TN14/2206Z BECMG 2201/2203 VRB02KT=

Estación: SCVM
METAR SCVM 220600Z 11004KT CAVOK 12/06 Q1019=

TAF SCVM 220400Z 2206/2306 VRB02KT CAVOK TX21/2218Z TN09/2210Z BECMG 2214/2216 30010KT BECMG 2301/2303 15004KT TEMPO 2303/2306 BKN010=

Estación: SCTB
METAR SCTB 220000Z 22005KT 9999 FEW060 18/03 Q1020=

TAF SCTB 211630Z 2118/2206 22010KT 6000 SCT030 BKN090 TX18/2118Z TN12/2206Z BECMG 2120/2122 9999 SCT050 SCT120 BECMG 2122/2124 CAVOK BECMG 2202/2204 VRB02KT=

Estación: SCEL
METAR SCEL 220600Z VRB01KT CAVOK 11/04 Q1020 NOSIG=

TAF SCEL 220400Z 2206/2306 16005KT CAVOK TX27/2219Z TN10/2210Z TEMPO 2209/2212 VRB02KT 0800 BCFG BKN002 BECMG 2214/2216 19012KT BECMG 2301/2303 18005KT BECMG 2303/2305 VRB02KT=

Estación: SCSN
METAR SCSN 220600Z AUTO VRB02KT CAVOK 07/04 Q1020=

TAF SCSN 211630Z 2118/2206 29010KT CAVOK TX18/2118Z TN14/2206Z BECMG 2200/2202 VRB02KT=

Estación: SCRG
METAR SCRG 192000Z 15014KT CAVOK 25/12 Q1013=

TAF SCRG 191629Z 1918/2006 17010KT CAVOK TX25/1918Z TN13/2006Z BECMG 2000/2002 VRB02KT=

Estación: SCIC
METAR SCIC 220600Z AUTO 18004KT 9999 NCD 10/05 Q1021=

TAF COR SCIC 211630Z 2118/2206 20010KT 9999 SCT030 TX17/2118Z TN14/ 2206Z BECMG 2120/2122 CAVOK BECMG 2201/2203 VRB02KT=

Estación: SCCH
METAR SCCH 220000Z 18004KT 9999 FEW040 16/02 Q1022=

TAF SCCH 211630Z 2118/2206 18012KT CAVOK TX20/2118Z TN13/2206Z BECMG 2202/2204 18005KT=

Estación: SCIE
METAR SCIE 220600Z 20002KT CAVOK 09/05 Q1025=

TAF SCIE 220400Z 2206/2306 21005KT CAVOK TX22/2218Z TN08/2210Z BECMG 2214/2216 21015KT BECMG 2304/2306 VRB02KT=

Estación: SCGE
METAR SCGE 212100Z 20014KT 9999 FEW040 21/02 Q1022=

TAF SCGE 211630Z 2118/2206 20012KT 9999 SCT030 TX19/2118Z TN11/2206Z BECMG 2122/2124 CAVOK BECMG 2202/2204 VRB02KT=


Volver